Olivenhain (182, 1250) Station Data

Red Flag Warning: No
Fire Weather Zone: 250
SDGE Region: North East
Lat/Lon: 33.08/-117.13

Observations

Time Wind Speed/Gust Temp(F) RH Fuel Moist Fuel Temp(F) Dewpt(F) Tmax(F) Tmin(F) Accum Precip 10-min Precip SL Press(mb)
4/29 11:50pm 45 5 G 7 63° 24% - - 25° 80.1° 60.1° - - -
4/29 11:40pm 41 5 G 8 63° 23% - - 24° 80.1° 60.1° - - -
4/29 11:30pm 55 4 G 5 64° 21% - - 23° 80.1° 60.1° - - -
4/29 11:20pm 53 4 G 5 64° 22% - - 24° 80.1° 60.1° - - -
4/29 11:10pm 50 4 G 5 64° 22% - - 24° 80.1° 60.1° - - -
4/29 11:00pm 59 4 G 6 64° 22% - - 25° 80.1° 60.1° - - -
4/29 10:50pm 76 4 G 7 64° 23% - - 25° 80.1° 60.1° - - -
4/29 10:40pm 51 5 G 7 64° 22% - - 24° 80.1° 60.1° - - -
4/29 10:30pm 63 4 G 5 65° 21% - - 24° 80.1° 60.1° - - -
4/29 10:20pm 88 4 G 6 64° 21% - - 23° 80.1° 60.1° - - -
4/29 10:10pm 100 4 G 7 64° 21% - - 24° 80.1° 60.1° - - -
4/29 10:00pm 111 5 G 8 65° 20% - - 23° 80.1° 60.1° - - -
4/29 9:50pm 15 2 G 5 65° 20% - - 23° 80.1° 60.1° - - -
4/29 9:40pm 344 3 G 5 66° 19% - - 22° 80.1° 60.1° - - -
4/29 9:30pm 305 2 G 3 66° 18% - - 22° 80.1° 60.1° - - -
4/29 9:20pm 323 2 G 5 66° 18% - - 21° 80.1° 60.1° - - -
4/29 9:10pm 329 3 G 6 65° 18% - - 21° 80.1° 60.1° - - -
4/29 9:00pm 307 3 G 9 65° 18% - - 21° 80.1° 60.1° - - -
4/29 8:50pm 240 4 G 9 65° 19% - - 22° 80.1° 60.1° - - -
4/29 8:40pm 235 6 G 11 65° 20% - - 23° 80.1° 60.1° - - -
4/29 8:30pm 225 7 G 12 65° 20% - - 23° 80.1° 60.1° - - -
4/29 8:20pm 238 7 G 14 66° 18% - - 22° 80.1° 60.1° - - -
4/29 8:10pm 247 7 G 13 65° 19% - - 22° 80.1° 60.1° - - -
4/29 8:00pm 243 8 G 14 66° 19% - - 22° 80.1° 60.1° - - -
4/29 7:50pm 230 8 G 14 65° 20% - - 23° 80.1° 60.1° - - -
4/29 7:40pm 225 7 G 11 65° 22% - - 25° 80.1° 60.1° - - -
4/29 7:30pm 229 5 G 11 66° 24% - - 28° 80.1° 60.1° - - -
4/29 7:20pm 243 4 G 8 66° 26% - - 30° 80.1° 60.1° - - -
4/29 7:10pm 235 4 G 8 67° 27% - - 32° 80.1° 60.1° - - -
4/29 7:00pm 234 6 G 11 68° 30% - - 35° 80.1° 60.1° - - -
4/29 6:50pm 231 10 G 16 69° 25% - - 32° 80.1° 60.1° - - -
4/29 6:40pm 236 11 G 18 69° 20% - - 27° 80.1° 60.1° - - -
4/29 6:30pm 230 13 G 18 70° 19% - - 26° 80.1° 60.1° - - -
4/29 6:20pm 232 12 G 18 70° 19% - - 26° 80.1° 60.1° - - -
4/29 6:10pm 230 12 G 18 71° 19% - - 27° 80.1° 60.1° - - -
4/29 6:00pm 233 13 G 20 71° 20% - - 27° 80.1° 60.1° - - -
4/29 5:50pm 227 14 G 23 71° 19% - - 26° 80.1° 60.1° - - -
4/29 5:40pm 228 16 G 22 71° 18% - - 26° 80.1° 60.1° - - -
4/29 5:30pm 232 13 G 22 72° 17% - - 25° 80.1° 60.1° - - -
4/29 5:20pm 233 14 G 22 72° 16% - - 23° 80.1° 60.1° - - -
4/29 5:10pm 236 12 G 19 72° 17% - - 25° 80.1° 60.1° - - -
4/29 5:00pm 230 15 G 22 72° 18% - - 27° 80.1° 60.1° - - -
4/29 4:50pm 230 15 G 21 72° 18% - - 26° 80.1° 60.1° - - -
4/29 4:40pm 227 17 G 24 72° 18% - - 27° 80.1° 60.1° - - -
4/29 4:30pm 225 17 G 23 73° 18% - - 27° 80.1° 60.1° - - -
4/29 4:20pm 223 16 G 25 73° 18% - - 27° 80.1° 60.1° - - -
4/29 4:10pm 220 18 G 24 73° 17% - - 26° 80.1° 60.1° - - -
4/29 4:00pm 228 18 G 25 73° 13% - - 20° 80.1° 60.1° - - -
4/29 3:50pm 231 19 G 24 73° 10% - - 14° 80.1° 60.1° - - -
4/29 3:40pm 230 18 G 25 74° 10% - - 14° 80.1° 60.1° - - -
4/29 3:30pm 219 19 G 26 74° 12% - - 18° 80.1° 60.1° - - -
4/29 3:20pm 219 17 G 26 74° 14% - - 21° 80.1° 60.1° - - -
4/29 3:10pm 224 17 G 25 74° 15% - - 23° 80.1° 60.1° - - -
4/29 3:00pm 234 15 G 23 74° 13% - - 20° 80.1° 60.1° - - -
4/29 2:50pm 232 15 G 21 74° 13% - - 20° 80.1° 60.1° - - -
4/29 2:40pm 230 15 G 22 74° 13% - - 20° 80.1° 60.1° - - -
4/29 2:30pm 226 16 G 23 74° 14% - - 21° 80.1° 60.1° - - -
4/29 2:20pm 225 16 G 21 74° 15% - - 24° 80.1° 60.1° - - -
4/29 2:10pm 232 14 G 21 74° 14% - - 22° 80.1° 60.1° - - -
4/29 2:00pm 230 16 G 22 73° 17% - - 26° 80.1° 60.1° - - -
4/29 1:50pm 217 18 G 26 74° 18% - - 28° 80.1° 60.1° - - -
4/29 1:40pm 217 18 G 26 73° 19% - - 29° 80.1° 60.1° - - -
4/29 1:30pm 213 18 G 27 74° 19% - - 29° 80.1° 60.1° - - -
4/29 1:20pm 220 14 G 20 74° 17% - - 26° 80.1° 60.1° - - -
4/29 1:10pm 209 16 G 23 74° 18% - - 28° 80.1° 60.1° - - -
4/29 1:00pm 169 13 G 24 75° 13% - - 20° 80.1° 60.1° - - -
4/29 12:50pm 115 6 G 14 77° 7% - - 10° 80.1° 60.1° - - -
4/29 12:40pm 40 7 G 23 78° 7% - - 80.1° 60.1° - - -
4/29 12:30pm 26 9 G 16 77° 7% - - 79.6° 60.1° - - -
4/29 12:20pm 30 13 G 25 77° 7% - - 78.2° 60.1° - - -
4/29 12:10pm 33 14 G 24 77° 7% - - 78.2° 60.1° - - -
4/29 12:00pm 20 12 G 25 77° 7% - - 78.2° 60.1° - - -
4/29 11:50am 29 14 G 22 77° 7% - - 78.2° 60.1° - - -
4/29 11:40am 40 10 G 21 77° 7% - - 78.2° 60.1° - - -
4/29 11:30am 63 7 G 18 76° 8% - - 10° 77.8° 60.1° - - -
4/29 11:20am 23 8 G 15 76° 9% - - 12° 77.8° 60.1° - - -
4/29 11:10am 25 6 G 13 75° 9% - - 12° 77.8° 60.1° - - -
4/29 11:00am 12 8 G 14 76° 9% - - 13° 77.8° 60.1° - - -
4/29 10:50am 58 5 G 13 74° 9% - - 12° 76.2° 60.1° - - -
4/29 10:40am 52 7 G 14 74° 9% - - 12° 75.1° 60.1° - - -
4/29 10:30am 30 10 G 15 74° 9% - - 12° 75.1° 60.1° - - -
4/29 10:20am 29 11 G 16 74° 9% - - 13° 75.1° 60.1° - - -
4/29 10:10am 38 10 G 17 73° 10% - - 14° 74.5° 60.1° - - -
4/29 10:00am 33 10 G 16 73° 11% - - 15° 74.1° 60.1° - - -
4/29 9:50am 29 11 G 17 73° 11% - - 14° 73.7° 60.1° - - -
4/29 9:40am 37 10 G 14 72° 12% - - 17° 73.7° 60.1° - - -
4/29 9:30am 28 8 G 14 72° 12% - - 17° 72.5° 60.1° - - -
4/29 9:20am 27 7 G 11 71° 12% - - 16° 71.8° 60.1° - - -
4/29 9:10am 32 7 G 11 71° 13% - - 17° 71.5° 60.1° - - -
4/29 9:00am 16 5 G 11 70° 12% - - 15° 70.7° 60.1° - - -
4/29 8:50am 38 3 G 8 69° 12% - - 14° 70.6° 60.1° - - -
4/29 8:40am 5 3 G 5 68° 13% - - 15° 69.2° 60.1° - - -
4/29 8:30am 16 4 G 7 67° 14% - - 17° 68.3° 60.1° - - -
4/29 8:20am 12 4 G 8 67° 15% - - 18° 67.7° 60.1° - - -
4/29 8:10am 5 4 G 8 67° 15% - - 17° 67.6° 60.1° - - -
4/29 8:00am 26 3 G 6 66° 15% - - 18° 67.5° 60.1° - - -
4/29 7:50am 46 4 G 7 66° 15% - - 18° 66.4° 60.1° - - -
4/29 7:40am 42 6 G 10 66° 15% - - 16° 66.4° 60.1° - - -
4/29 7:30am 23 7 G 11 66° 13% - - 13° 66.4° 60.1° - - -
4/29 7:20am 28 6 G 11 65° 14% - - 14° 66.1° 60.1° - - -
4/29 7:10am 17 9 G 13 64° 15% - - 15° 66.1° 60.1° - - -
4/29 7:00am 27 5 G 11 65° 16% - - 18° 66.1° 60.1° - - -
4/29 6:50am 40 3 G 6 65° 16% - - 17° 66.1° 60.1° - - -
4/29 6:40am 32 3 G 6 65° 16% - - 18° 66.1° 60.1° - - -
4/29 6:30am 34 3 G 5 64° 16% - - 18° 66.1° 60.1° - - -
4/29 6:20am 15 3 G 5 64° 15% - - 16° 66.1° 60.1° - - -
4/29 6:10am 2 3 G 6 64° 14% - - 14° 66.1° 60.1° - - -
4/29 6:00am 15 4 G 5 63° 16% - - 16° 66.1° 60.1° - - -
4/29 5:50am 45 4 G 7 64° 14% - - 14° 66.1° 60.1° - - -
4/29 5:40am 69 3 G 5 64° 15% - - 15° 66.1° 60.1° - - -
4/29 5:30am 62 5 G 8 64° 15% - - 16° 66.1° 60.1° - - -
4/29 5:20am 58 5 G 8 65° 15% - - 16° 66.1° 60.1° - - -
4/29 5:10am 55 6 G 9 65° 14% - - 15° 66.1° 60.1° - - -
4/29 5:00am 56 4 G 8 65° 15% - - 17° 66.1° 60.1° - - -
4/29 4:50am 71 3 G 5 64° 17% - - 19° 66.1° 60.1° - - -
4/29 4:40am 56 5 G 7 65° 18% - - 20° 66.1° 60.1° - - -
4/29 4:30am 62 5 G 7 65° 18% - - 20° 66.1° 60.1° - - -
4/29 4:20am 58 5 G 7 64° 18% - - 20° 66.1° 60.1° - - -
4/29 4:10am 47 4 G 6 64° 20% - - 22° 66.1° 60.1° - - -
4/29 4:00am 35 4 G 6 64° 20% - - 22° 66.1° 60.1° - - -
4/29 3:50am 37 6 G 8 65° 18% - - 20° 66.1° 60.1° - - -
4/29 3:40am 48 6 G 8 64° 18% - - 20° 66.1° 60.1° - - -
4/29 3:30am 47 6 G 9 64° 21% - - 23° 66.1° 60.1° - - -
4/29 3:20am 44 7 G 9 64° 23% - - 26° 66.1° 60.1° - - -
4/29 3:10am 38 7 G 10 65° 25% - - 28° 66.1° 60.1° - - -
4/29 3:00am 46 7 G 10 64° 27% - - 30° 66.1° 60.1° - - -
4/29 2:50am 37 7 G 9 64° 30% - - 32° 66.1° 60.1° - - -
4/29 2:40am 23 7 G 9 64° 33% - - 35° 66.1° 60.1° - - -
4/29 2:30am 10 7 G 10 63° 39% - - 38° 66.1° 60.1° - - -
4/29 2:20am 12 6 G 8 63° 41% - - 39° 66.1° 60.1° - - -
4/29 2:10am 27 6 G 7 63° 40% - - 39° 66.1° 60.1° - - -
4/29 2:00am 30 5 G 6 64° 40% - - 39° 66.1° 60.1° - - -
4/29 1:50am 24 5 G 7 65° 37% - - 38° 66.1° 60.1° - - -
4/29 1:40am 3 4 G 6 64° 39% - - 39° 65.6° 60.1° - - -
4/29 1:30am 34 2 G 5 63° 40% - - 39° 64.1° 60.1° - - -
4/29 1:20am 360 4 G 6 63° 40% - - 39° 63.8° 60.1° - - -
4/29 1:10am 351 6 G 7 62° 45% - - 40° 63.8° 60.1° - - -
4/29 1:00am 354 4 G 5 61° 52% - - 43° 63° 60.1° - - -
4/29 12:50am 6 3 G 4 61° 49% - - 42° 63° 60.1° - - -
4/29 12:40am 6 2 G 4 61° 54% - - 44° 63° 60.1° - - -
4/29 12:30am 19 2 G 3 61° 53% - - 44° 63° 60.3° - - -
4/29 12:20am 14 2 G 3 61° 52% - - 43° 63° 60.7° - - -
4/29 12:10am 66 3 G 4 62° 48% - - 42° 63° 61° - - -
4/29 12:00am 137 2 G 4 62° 47% - - 42° 71.8° 52.6° - - -
4/28 11:50pm 152 4 G 6 62° 46% - - 42° 71.8° 52.6° - - -
4/28 11:40pm 144 4 G 6 62° 47% - - 42° 71.8° 52.6° - - -
4/28 11:30pm 129 2 G 4 61° 53% - - 44° 71.8° 52.6° - - -
4/28 11:20pm 83 1 G 5 60° 57% - - 45° 71.8° 52.6° - - -
4/28 11:10pm 43 3 G 6 60° 58% - - 45° 71.8° 52.6° - - -
4/28 11:00pm 52 4 G 6 60° 60% - - 46° 71.8° 52.6° - - -
4/28 10:50pm 39 3 G 5 60° 59% - - 46° 71.8° 52.6° - - -
4/28 10:40pm 33 3 G 4 60° 58% - - 45° 71.8° 52.6° - - -
4/28 10:30pm 15 3 G 4 60° 56% - - 45° 71.8° 52.6° - - -
4/28 10:20pm 23 1 G 2 60° 56% - - 45° 71.8° 52.6° - - -
4/28 10:10pm 30 1 G 4 60° 57% - - 45° 71.8° 52.6° - - -
4/28 10:00pm 44 3 G 4 61° 56% - - 45° 71.8° 52.6° - - -
4/28 9:50pm 36 3 G 4 61° 55% - - 45° 71.8° 52.6° - - -
4/28 9:40pm 28 2 G 3 61° 54% - - 44° 71.8° 52.6° - - -
4/28 9:30pm 2 4 G 5 62° 52% - - 44° 71.8° 52.6° - - -
4/28 9:20pm 346 3 G 5 62° 52% - - 44° 71.8° 52.6° - - -
4/28 9:10pm 314 4 G 6 62° 51% - - 44° 71.8° 52.6° - - -
4/28 9:00pm 333 3 G 5 60° 59% - - 46° 71.8° 52.6° - - -
4/28 8:50pm 15 3 G 6 60° 58% - - 45° 71.8° 52.6° - - -
4/28 8:40pm 360 2 G 4 61° 56% - - 45° 71.8° 52.6° - - -
4/28 8:30pm 285 2 G 4 60° 58% - - 46° 71.8° 52.6° - - -
4/28 8:20pm 271 2 G 5 60° 59% - - 46° 71.8° 52.6° - - -
4/28 8:10pm 255 2 G 5 60° 58% - - 45° 71.8° 52.6° - - -
4/28 8:00pm 233 4 G 8 60° 57% - - 45° 71.8° 52.6° - - -
4/28 7:50pm 217 7 G 9 61° 57% - - 46° 71.8° 52.6° - - -
4/28 7:40pm 227 5 G 8 62° 52% - - 44° 71.8° 52.6° - - -
4/28 7:30pm 236 5 G 11 62° 49% - - 43° 71.8° 52.6° - - -
4/28 7:20pm 229 7 G 11 62° 50% - - 44° 71.8° 52.6° - - -
4/28 7:10pm 217 6 G 10 63° 49% - - 43° 71.8° 52.6° - - -
4/28 7:00pm 243 4 G 10 63° 47% - - 43° 71.8° 52.6° - - -
4/28 6:50pm 231 11 G 19 64° 46% - - 43° 71.8° 52.6° - - -
4/28 6:40pm 229 14 G 21 64° 45% - - 42° 71.8° 52.6° - - -
4/28 6:30pm 227 14 G 24 64° 46% - - 43° 71.8° 52.6° - - -
4/28 6:20pm 234 12 G 19 64° 44% - - 42° 71.8° 52.6° - - -
4/28 6:10pm 225 13 G 19 65° 42% - - 41° 71.8° 52.6° - - -
4/28 6:00pm 232 14 G 23 65° 38% - - 39° 71.8° 52.6° - - -